createdAt,value
2022-08-24T00:00:17.560Z,22.00
2022-08-24T00:00:59.314Z,22.00
2022-08-24T00:01:41.025Z,22.00
2022-08-24T00:02:24.091Z,22.00
2022-08-24T00:03:07.273Z,21.90
2022-08-24T00:03:49.496Z,21.90
2022-08-24T00:04:37.225Z,21.70
2022-08-24T00:05:21.290Z,21.90
2022-08-24T00:06:03.998Z,21.70
2022-08-24T00:06:45.705Z,21.90
2022-08-24T00:07:28.255Z,21.90
2022-08-24T00:08:10.028Z,22.00
2022-08-24T00:08:53.511Z,21.90
2022-08-24T00:09:36.383Z,22.00
2022-08-24T00:10:21.150Z,21.90
2022-08-24T00:11:03.102Z,22.00
2022-08-24T00:11:45.074Z,21.90
2022-08-24T00:12:27.749Z,21.90
2022-08-24T00:13:09.560Z,21.80
2022-08-24T00:13:52.284Z,21.60
2022-08-24T00:14:34.141Z,21.80
2022-08-24T00:15:16.368Z,21.90
2022-08-24T00:15:58.178Z,21.70
2022-08-24T00:16:42.340Z,21.80
2022-08-24T00:17:24.466Z,21.90
2022-08-24T00:18:06.542Z,21.80
2022-08-24T00:18:48.851Z,21.80
2022-08-24T00:19:30.650Z,22.00
2022-08-24T00:20:13.272Z,21.80
2022-08-24T00:20:55.394Z,21.70
2022-08-24T00:21:37.415Z,21.80
2022-08-24T00:22:19.117Z,21.80
2022-08-24T00:23:00.830Z,21.70
2022-08-24T00:23:43.044Z,21.90
2022-08-24T00:24:24.750Z,21.80
2022-08-24T00:25:08.017Z,21.80
2022-08-24T00:25:49.754Z,21.80
2022-08-24T00:26:31.618Z,21.80
2022-08-24T00:27:13.314Z,21.60
2022-08-24T00:27:55.133Z,21.80
2022-08-24T00:28:37.231Z,21.70
2022-08-24T00:29:20.417Z,21.80
2022-08-24T00:30:02.745Z,21.60
2022-08-24T00:30:44.514Z,21.70
2022-08-24T00:31:26.570Z,21.70
2022-08-24T00:32:08.528Z,21.50
2022-08-24T00:32:51.294Z,21.80
2022-08-24T00:33:33.905Z,21.60
2022-08-24T00:34:17.770Z,21.80
2022-08-24T00:34:59.638Z,21.40
2022-08-24T00:35:41.388Z,21.60
2022-08-24T00:36:24.717Z,21.60
2022-08-24T00:37:06.465Z,21.60
2022-08-24T00:37:49.561Z,21.60
2022-08-24T00:38:32.258Z,21.50
2022-08-24T00:39:14.371Z,21.70
2022-08-24T00:39:57.034Z,21.40
2022-08-24T00:40:42.080Z,21.70
2022-08-24T00:41:24.297Z,21.50
2022-08-24T00:42:06.251Z,21.70
2022-08-24T00:42:48.077Z,21.50
2022-08-24T00:43:29.926Z,21.70
2022-08-24T00:44:14.024Z,21.40
2022-08-24T00:44:55.962Z,21.50
2022-08-24T00:46:13.286Z,21.60
2022-08-24T00:47:03.475Z,21.70
2022-08-24T00:47:51.792Z,21.50
2022-08-24T00:48:39.674Z,21.50
2022-08-24T00:49:29.897Z,21.50
2022-08-24T00:50:19.220Z,21.70
2022-08-24T00:51:16.570Z,21.50
2022-08-24T00:52:21.782Z,21.60
2022-08-24T00:53:09.738Z,21.40
2022-08-24T00:53:56.010Z,21.50
2022-08-24T00:54:46.266Z,21.60
2022-08-24T00:55:33.899Z,21.50
2022-08-24T00:56:21.058Z,21.40
2022-08-24T00:57:06.876Z,21.50
2022-08-24T00:57:56.030Z,21.50
2022-08-24T00:59:05.042Z,21.80
2022-08-24T01:00:08.071Z,21.50
2022-08-24T01:01:02.385Z,21.40
2022-08-24T01:01:44.739Z,21.30
2022-08-24T01:02:31.880Z,21.40
2022-08-24T01:03:14.114Z,21.50
2022-08-24T01:03:57.594Z,21.50
2022-08-24T01:04:49.421Z,21.40
2022-08-24T01:05:33.673Z,21.50
2022-08-24T01:06:15.679Z,21.30
2022-08-24T01:06:57.880Z,21.30
2022-08-24T01:07:40.290Z,21.40
2022-08-24T01:08:23.156Z,21.30
2022-08-24T01:09:06.843Z,21.30
2022-08-24T01:09:49.673Z,21.20
2022-08-24T01:10:35.383Z,21.30
2022-08-24T01:11:20.944Z,21.30
2022-08-24T01:12:03.499Z,21.20
2022-08-24T01:13:00.169Z,21.30
2022-08-24T01:13:46.677Z,21.10
2022-08-24T01:14:29.692Z,21.20
2022-08-24T01:15:12.251Z,21.20
2022-08-24T01:15:59.031Z,21.20
2022-08-24T01:16:59.197Z,21.20
2022-08-24T01:17:59.733Z,21.40
2022-08-24T01:18:50.294Z,21.40
2022-08-24T01:19:46.941Z,21.20
2022-08-24T01:20:28.629Z,21.20
2022-08-24T01:21:54.710Z,21.10
2022-08-24T01:22:42.886Z,21.20
2022-08-24T01:23:36.995Z,21.10
2022-08-24T01:24:18.868Z,21.20
2022-08-24T01:25:01.540Z,21.20
2022-08-24T01:25:44.609Z,20.90
2022-08-24T01:26:39.883Z,21.00
2022-08-24T01:27:26.335Z,21.00
2022-08-24T01:28:21.785Z,21.10
2022-08-24T01:29:14.121Z,21.00
2022-08-24T01:29:57.350Z,21.00
2022-08-24T01:30:39.318Z,21.00
2022-08-24T01:31:23.655Z,21.10
2022-08-24T01:32:05.827Z,21.10
2022-08-24T01:32:59.455Z,21.00
2022-08-24T01:33:41.185Z,20.90
2022-08-24T01:34:22.959Z,21.10
2022-08-24T01:35:05.280Z,20.80
2022-08-24T01:35:47.089Z,21.00
2022-08-24T01:36:46.085Z,21.00
2022-08-24T01:37:27.862Z,21.10
2022-08-24T01:38:12.294Z,21.00
2022-08-24T01:38:55.431Z,20.90
2022-08-24T01:39:44.533Z,20.90
2022-08-24T01:40:35.659Z,20.90
2022-08-24T01:41:17.368Z,21.10
2022-08-24T01:41:59.594Z,21.10
2022-08-24T01:42:51.354Z,20.90
2022-08-24T01:43:35.208Z,20.90
2022-08-24T01:44:21.218Z,21.10
2022-08-24T01:45:06.452Z,21.10
2022-08-24T01:45:48.148Z,21.10
2022-08-24T01:46:30.001Z,21.10
2022-08-24T01:47:13.494Z,20.90
2022-08-24T01:47:55.239Z,20.90
2022-08-24T01:48:37.011Z,20.80
2022-08-24T01:49:19.376Z,20.70
2022-08-24T01:50:01.880Z,20.80
2022-08-24T01:50:43.829Z,20.80
2022-08-24T01:51:30.875Z,20.90
2022-08-24T01:52:18.150Z,21.00
2022-08-24T01:53:14.360Z,20.80
2022-08-24T01:53:56.077Z,20.80
2022-08-24T01:54:38.948Z,20.90
2022-08-24T01:55:25.540Z,20.90
2022-08-24T01:56:07.240Z,21.10
2022-08-24T01:56:49.203Z,21.00
2022-08-24T01:57:30.914Z,20.90
2022-08-24T01:58:12.654Z,21.00
2022-08-24T01:58:54.817Z,20.80
2022-08-24T01:59:36.870Z,20.90
2022-08-24T02:00:18.905Z,20.90
2022-08-24T02:01:00.982Z,20.80
2022-08-24T02:01:51.990Z,20.90
2022-08-24T02:02:34.067Z,21.00
2022-08-24T02:03:16.248Z,20.90
2022-08-24T02:04:02.065Z,20.80
2022-08-24T02:04:44.281Z,20.90
2022-08-24T02:05:26.241Z,20.90
2022-08-24T02:06:08.217Z,20.90
2022-08-24T02:06:49.953Z,20.80
2022-08-24T02:07:32.910Z,20.70
2022-08-24T02:08:15.013Z,20.80
2022-08-24T02:08:56.712Z,20.80
2022-08-24T02:09:38.989Z,20.90
2022-08-24T02:10:21.429Z,20.70
2022-08-24T02:11:06.357Z,20.80
2022-08-24T02:11:49.026Z,20.90
2022-08-24T02:12:30.733Z,20.60
2022-08-24T02:13:12.441Z,20.90
2022-08-24T02:13:56.853Z,20.80
2022-08-24T02:14:38.875Z,20.70
2022-08-24T02:15:20.662Z,20.70
2022-08-24T02:16:02.656Z,20.60
2022-08-24T02:16:44.355Z,20.70
2022-08-24T02:17:26.033Z,20.80
2022-08-24T02:18:15.337Z,20.60
2022-08-24T02:18:58.606Z,20.80
2022-08-24T02:19:40.318Z,20.60
2022-08-24T02:20:22.132Z,20.40
2022-08-24T02:21:04.167Z,20.50
2022-08-24T02:21:46.381Z,20.40
2022-08-24T02:22:28.270Z,20.50
2022-08-24T02:23:10.100Z,20.60
2022-08-24T02:23:52.751Z,20.60
2022-08-24T02:24:34.839Z,20.50
2022-08-24T02:25:16.774Z,20.60
2022-08-24T02:25:58.469Z,20.60
2022-08-24T02:26:40.678Z,20.50
2022-08-24T02:27:22.431Z,20.50
2022-08-24T02:28:04.758Z,20.60
2022-08-24T02:28:46.458Z,20.60
2022-08-24T02:29:28.330Z,20.50
2022-08-24T02:30:10.618Z,20.80
2022-08-24T02:30:53.631Z,20.50
2022-08-24T02:31:36.906Z,20.60
2022-08-24T02:32:18.820Z,20.50
2022-08-24T02:33:01.272Z,20.70
2022-08-24T02:33:43.162Z,20.60
2022-08-24T02:34:25.010Z,20.50
2022-08-24T02:35:06.918Z,20.40
2022-08-24T02:35:48.995Z,20.70
2022-08-24T02:36:31.248Z,20.60
2022-08-24T02:37:12.937Z,20.60
2022-08-24T02:37:54.623Z,20.50
2022-08-24T02:38:36.350Z,20.50
2022-08-24T02:39:18.291Z,20.50
2022-08-24T02:40:00.298Z,20.50
2022-08-24T02:40:42.309Z,20.60
2022-08-24T02:41:27.072Z,20.60
2022-08-24T02:42:08.793Z,20.60
2022-08-24T02:42:50.753Z,20.40
2022-08-24T02:43:33.140Z,20.40
2022-08-24T02:44:20.847Z,20.20
2022-08-24T02:45:05.774Z,20.60
2022-08-24T02:45:50.381Z,20.40
2022-08-24T02:46:32.342Z,20.30
2022-08-24T02:47:14.204Z,20.40
2022-08-24T02:47:56.272Z,20.20
2022-08-24T02:48:37.979Z,20.30
2022-08-24T02:49:21.304Z,20.20
2022-08-24T02:50:06.631Z,20.30
2022-08-24T02:50:51.540Z,20.30
2022-08-24T02:51:43.891Z,20.40
2022-08-24T02:52:26.377Z,20.30
2022-08-24T02:53:08.748Z,20.50
2022-08-24T02:53:51.051Z,20.30
2022-08-24T02:54:32.843Z,20.40
2022-08-24T02:55:20.353Z,20.40
2022-08-24T02:56:02.301Z,20.40
2022-08-24T02:56:44.532Z,20.30
2022-08-24T02:57:26.382Z,20.20
2022-08-24T02:58:09.578Z,20.10
2022-08-24T02:58:53.187Z,20.10
2022-08-24T02:59:36.161Z,20.30
2022-08-24T03:00:21.388Z,20.30
2022-08-24T03:01:03.128Z,20.30
2022-08-24T03:01:55.508Z,20.30
2022-08-24T03:02:37.768Z,20.30
2022-08-24T03:03:19.487Z,20.20
2022-08-24T03:04:01.637Z,20.30
2022-08-24T03:04:43.358Z,20.30
2022-08-24T03:05:31.130Z,20.30
2022-08-24T03:06:14.057Z,20.10
2022-08-24T03:06:55.833Z,20.40
2022-08-24T03:07:38.027Z,20.30
2022-08-24T03:08:19.782Z,20.20
2022-08-24T03:09:01.554Z,20.30
2022-08-24T03:09:43.342Z,20.20
2022-08-24T03:10:25.116Z,20.40
2022-08-24T03:11:08.268Z,20.30
2022-08-24T03:11:49.966Z,20.20
2022-08-24T03:12:31.756Z,20.30
2022-08-24T03:13:13.577Z,20.30
2022-08-24T03:13:58.361Z,20.30
2022-08-24T03:14:40.800Z,20.60
2022-08-24T03:15:23.066Z,20.20
2022-08-24T03:16:05.977Z,20.30
2022-08-24T03:16:47.849Z,20.20
2022-08-24T03:17:33.683Z,20.20
2022-08-24T03:18:15.953Z,20.10
2022-08-24T03:18:57.972Z,20.30
2022-08-24T03:19:40.204Z,20.20
2022-08-24T03:20:22.929Z,20.20
2022-08-24T03:21:04.857Z,20.00
2022-08-24T03:21:46.544Z,20.10
2022-08-24T03:22:28.395Z,20.10
2022-08-24T03:23:10.082Z,20.10
2022-08-24T03:23:52.402Z,20.30
2022-08-24T03:24:34.081Z,20.20
2022-08-24T03:25:17.536Z,20.10
2022-08-24T03:25:59.465Z,20.20
2022-08-24T03:26:44.113Z,20.10
2022-08-24T03:27:26.461Z,20.00
2022-08-24T03:28:11.007Z,20.20
2022-08-24T03:28:53.179Z,20.00
2022-08-24T03:29:35.275Z,20.20
2022-08-24T03:30:18.760Z,19.90
2022-08-24T03:31:00.721Z,20.10
2022-08-24T03:31:42.502Z,20.20
2022-08-24T03:32:24.421Z,20.00
2022-08-24T03:33:07.157Z,20.00
2022-08-24T03:33:50.037Z,20.20
2022-08-24T03:34:31.896Z,20.10
2022-08-24T03:35:14.939Z,20.30
2022-08-24T03:35:56.648Z,20.10
2022-08-24T03:36:38.353Z,20.10
2022-08-24T03:37:20.549Z,20.00
2022-08-24T03:38:02.490Z,19.90
2022-08-24T03:38:44.735Z,19.90
2022-08-24T03:39:26.423Z,19.90
2022-08-24T03:40:22.328Z,19.90
2022-08-24T03:41:06.081Z,19.90
2022-08-24T03:41:48.230Z,20.00
2022-08-24T03:42:29.941Z,20.00
2022-08-24T03:43:31.654Z,19.90
2022-08-24T03:44:13.506Z,19.90
2022-08-24T03:44:55.437Z,19.80
2022-08-24T03:45:37.173Z,19.90
2022-08-24T03:46:28.754Z,19.90
2022-08-24T03:47:10.621Z,19.80
2022-08-24T03:47:53.192Z,19.90
2022-08-24T03:48:35.802Z,19.90
2022-08-24T03:49:18.253Z,20.00
2022-08-24T03:50:00.011Z,20.00
2022-08-24T03:50:46.152Z,19.90
2022-08-24T03:51:29.039Z,19.90
2022-08-24T03:52:10.860Z,19.80
2022-08-24T03:52:53.103Z,19.80
2022-08-24T03:53:34.789Z,19.80
2022-08-24T03:54:19.770Z,19.80
2022-08-24T03:55:03.928Z,19.80
2022-08-24T03:55:45.629Z,19.90
2022-08-24T03:56:28.024Z,19.80
2022-08-24T03:57:09.696Z,19.80
2022-08-24T03:57:51.444Z,19.70
2022-08-24T03:58:33.245Z,19.90
2022-08-24T03:59:19.737Z,19.90
2022-08-24T04:00:04.386Z,19.80
2022-08-24T04:00:46.435Z,19.80
2022-08-24T04:01:28.671Z,19.80
2022-08-24T04:02:10.643Z,19.90
2022-08-24T04:02:56.489Z,19.80
2022-08-24T04:03:43.378Z,19.80
2022-08-24T04:04:25.831Z,19.80
2022-08-24T04:05:07.908Z,19.80
2022-08-24T04:05:49.641Z,19.80
2022-08-24T04:06:31.422Z,19.80
2022-08-24T04:07:13.365Z,19.80
2022-08-24T04:07:55.568Z,19.90
2022-08-24T04:08:38.159Z,19.80
2022-08-24T04:09:19.910Z,20.00
2022-08-24T04:10:01.842Z,19.80
2022-08-24T04:10:47.045Z,19.70
2022-08-24T04:11:29.970Z,19.80
2022-08-24T04:12:11.789Z,19.90
2022-08-24T04:12:54.975Z,19.80
2022-08-24T04:13:36.851Z,19.80
2022-08-24T04:14:27.157Z,19.70
2022-08-24T04:15:10.122Z,19.70
2022-08-24T04:15:52.938Z,19.70
2022-08-24T04:16:34.894Z,19.90
2022-08-24T04:17:16.761Z,19.80
2022-08-24T04:17:58.575Z,19.90
2022-08-24T04:18:41.577Z,19.80
2022-08-24T04:19:23.293Z,20.00
2022-08-24T04:20:05.645Z,19.70
2022-08-24T04:20:47.381Z,19.70
2022-08-24T04:21:32.821Z,19.70
2022-08-24T04:22:17.325Z,19.70
2022-08-24T04:22:59.075Z,19.80
2022-08-24T04:23:47.684Z,19.60
2022-08-24T04:24:29.821Z,19.80
2022-08-24T04:25:12.144Z,19.80
2022-08-24T04:25:53.855Z,19.60
2022-08-24T04:26:45.232Z,19.70
2022-08-24T04:27:27.696Z,19.50
2022-08-24T04:28:09.568Z,19.80
2022-08-24T04:28:52.074Z,19.60
2022-08-24T04:29:34.323Z,19.60
2022-08-24T04:30:16.245Z,19.60
2022-08-24T04:30:58.120Z,19.50
2022-08-24T04:31:42.668Z,19.60
2022-08-24T04:32:24.498Z,19.50
2022-08-24T04:33:06.635Z,19.50
2022-08-24T04:33:53.934Z,19.60
2022-08-24T04:34:36.024Z,19.30
2022-08-24T04:35:17.874Z,19.60
2022-08-24T04:35:59.870Z,19.50
2022-08-24T04:36:43.043Z,19.60
2022-08-24T04:37:27.975Z,19.70
2022-08-24T04:38:11.012Z,19.50
2022-08-24T04:38:52.710Z,19.60
2022-08-24T04:39:34.528Z,19.60
2022-08-24T04:40:16.543Z,19.60
2022-08-24T04:41:08.054Z,19.60
2022-08-24T04:41:57.219Z,19.60
2022-08-24T04:42:44.729Z,19.60
2022-08-24T04:43:26.811Z,19.60
2022-08-24T04:44:08.574Z,19.60
2022-08-24T04:44:50.496Z,19.60
2022-08-24T04:45:34.065Z,19.60
2022-08-24T04:46:17.867Z,19.60
2022-08-24T04:46:59.877Z,19.60
2022-08-24T04:47:44.808Z,19.60
2022-08-24T04:48:26.603Z,19.50
2022-08-24T04:49:08.481Z,19.50
2022-08-24T04:49:50.202Z,19.60
2022-08-24T04:50:35.761Z,19.50
2022-08-24T04:51:19.616Z,19.40
2022-08-24T04:52:01.757Z,19.60
2022-08-24T04:52:43.664Z,19.50
2022-08-24T04:53:25.614Z,19.50
2022-08-24T04:54:08.266Z,19.60
2022-08-24T04:54:50.379Z,19.50
2022-08-24T04:55:33.072Z,19.50
2022-08-24T04:56:21.180Z,19.50
2022-08-24T04:57:03.154Z,19.30
2022-08-24T04:57:44.900Z,19.50
2022-08-24T04:58:28.888Z,19.50
2022-08-24T04:59:10.849Z,19.60
2022-08-24T04:59:56.567Z,19.50
2022-08-24T05:00:38.587Z,19.40
2022-08-24T05:01:26.069Z,19.40
2022-08-24T05:02:07.850Z,19.40
2022-08-24T05:02:50.366Z,19.50
2022-08-24T05:03:32.163Z,19.50
2022-08-24T05:04:14.448Z,19.50
2022-08-24T05:04:59.281Z,19.50
2022-08-24T05:05:44.241Z,19.40
2022-08-24T05:06:30.274Z,19.60
2022-08-24T05:07:12.385Z,19.60
2022-08-24T05:07:56.667Z,19.40
2022-08-24T05:08:38.617Z,19.50
2022-08-24T05:09:20.322Z,19.60
2022-08-24T05:10:02.595Z,19.60
2022-08-24T05:10:47.946Z,19.60
2022-08-24T05:11:29.966Z,19.50
2022-08-24T05:12:12.024Z,19.50
2022-08-24T05:12:53.869Z,19.50
2022-08-24T05:13:37.545Z,19.50
2022-08-24T05:14:19.297Z,19.50
2022-08-24T05:15:01.057Z,19.50
2022-08-24T05:15:47.852Z,19.40
2022-08-24T05:16:30.529Z,19.60
2022-08-24T05:17:13.457Z,19.60
2022-08-24T05:17:55.171Z,19.60
2022-08-24T05:18:37.075Z,19.70
2022-08-24T05:19:18.825Z,19.50
2022-08-24T05:20:00.636Z,19.70
2022-08-24T05:20:45.277Z,19.50
2022-08-24T05:21:28.279Z,19.50
2022-08-24T05:22:09.981Z,19.60
2022-08-24T05:22:55.761Z,19.50
2022-08-24T05:23:40.064Z,19.60
2022-08-24T05:24:25.831Z,19.50
2022-08-24T05:25:08.006Z,19.50
2022-08-24T05:25:49.755Z,19.70
2022-08-24T05:26:31.750Z,19.60
2022-08-24T05:27:14.274Z,19.60
2022-08-24T05:27:56.120Z,19.70
2022-08-24T05:28:39.407Z,19.60
2022-08-24T05:29:21.573Z,19.60
2022-08-24T05:30:05.113Z,19.60
2022-08-24T05:30:46.832Z,19.60
2022-08-24T05:31:33.796Z,19.80
2022-08-24T05:32:17.674Z,19.70
2022-08-24T05:33:00.019Z,19.80
2022-08-24T05:33:42.106Z,19.60
2022-08-24T05:34:24.398Z,19.70
2022-08-24T05:35:07.208Z,19.70
2022-08-24T05:35:49.961Z,19.70
2022-08-24T05:36:34.494Z,19.70
2022-08-24T05:37:16.230Z,19.70
2022-08-24T05:37:59.172Z,19.60
2022-08-24T05:38:40.880Z,19.70
2022-08-24T05:39:22.608Z,19.80
2022-08-24T05:40:06.930Z,19.70
2022-08-24T05:40:48.687Z,19.70
2022-08-24T05:41:30.461Z,19.70
2022-08-24T05:42:13.582Z,19.70
2022-08-24T05:42:55.452Z,19.80
2022-08-24T05:43:37.198Z,19.70
2022-08-24T05:44:18.967Z,19.80
2022-08-24T05:45:00.821Z,19.80
2022-08-24T05:45:43.322Z,19.70
2022-08-24T05:46:25.141Z,20.00
2022-08-24T05:47:06.933Z,19.80
2022-08-24T05:47:48.640Z,19.90
2022-08-24T05:48:30.336Z,19.70
2022-08-24T05:49:12.405Z,19.80
2022-08-24T05:49:54.142Z,19.80
2022-08-24T05:50:35.881Z,19.80
2022-08-24T05:51:17.870Z,19.80
2022-08-24T05:51:59.817Z,19.90
2022-08-24T05:52:41.900Z,19.80
2022-08-24T05:53:23.863Z,19.80
2022-08-24T05:54:06.318Z,20.00
2022-08-24T05:54:57.746Z,19.90
2022-08-24T05:55:40.891Z,19.90
2022-08-24T05:56:22.665Z,20.10
2022-08-24T05:57:06.309Z,19.80
2022-08-24T05:57:48.126Z,20.10
2022-08-24T05:58:31.257Z,19.90
2022-08-24T05:59:14.508Z,19.90
2022-08-24T05:59:56.400Z,20.00
2022-08-24T06:00:38.112Z,19.90
2022-08-24T06:01:23.936Z,20.10
2022-08-24T06:02:05.772Z,20.00
2022-08-24T06:02:47.678Z,20.00
2022-08-24T06:03:29.465Z,20.10
2022-08-24T06:04:11.577Z,20.10
2022-08-24T06:04:53.382Z,20.20
2022-08-24T06:05:40.114Z,20.00
2022-08-24T06:06:23.405Z,20.00
2022-08-24T06:07:09.160Z,20.00
2022-08-24T06:07:50.927Z,20.10
2022-08-24T06:08:38.129Z,20.10
2022-08-24T06:09:22.887Z,20.10
2022-08-24T06:10:32.798Z,20.30
2022-08-24T06:11:06.894Z,20.20
2022-08-24T06:11:49.347Z,20.20
2022-08-24T06:12:31.069Z,20.10
2022-08-24T06:13:13.361Z,20.50
2022-08-24T06:13:59.279Z,20.10
2022-08-24T06:14:44.910Z,20.10
2022-08-24T06:15:26.612Z,20.10
2022-08-24T06:16:21.305Z,20.10
2022-08-24T06:17:05.967Z,20.20
2022-08-24T06:17:47.763Z,20.20
2022-08-24T06:18:29.495Z,20.10
2022-08-24T06:19:14.058Z,20.30
2022-08-24T06:19:55.782Z,20.30
2022-08-24T06:20:40.665Z,20.40
2022-08-24T06:21:28.434Z,20.20
2022-08-24T06:22:10.502Z,20.30
2022-08-24T06:22:52.257Z,20.30
2022-08-24T06:23:34.442Z,20.20
2022-08-24T06:24:16.542Z,20.40
2022-08-24T06:25:16.997Z,20.40
2022-08-24T06:26:21.355Z,20.40
2022-08-24T06:27:23.034Z,20.30
2022-08-24T06:28:04.759Z,20.50
2022-08-24T06:28:46.485Z,20.30
2022-08-24T06:29:28.381Z,20.40
2022-08-24T06:30:12.085Z,20.50
2022-08-24T06:31:05.268Z,20.50
2022-08-24T06:31:52.142Z,20.60
2022-08-24T06:32:37.431Z,20.40
2022-08-24T06:33:19.226Z,20.30
2022-08-24T06:34:00.954Z,20.50
2022-08-24T06:34:42.746Z,20.40
2022-08-24T06:35:24.462Z,20.50
2022-08-24T06:36:06.613Z,20.60
2022-08-24T06:36:49.267Z,20.60
2022-08-24T06:37:31.027Z,20.50
2022-08-24T06:38:13.217Z,20.60
2022-08-24T06:38:54.902Z,20.50
2022-08-24T06:39:36.615Z,20.60
2022-08-24T06:40:20.387Z,20.60
2022-08-24T06:41:02.360Z,20.70
2022-08-24T06:41:44.139Z,20.80
2022-08-24T06:42:26.420Z,20.70
2022-08-24T06:43:08.267Z,20.60
2022-08-24T06:43:49.985Z,20.70
2022-08-24T06:44:32.736Z,20.70
2022-08-24T06:45:14.503Z,20.80
2022-08-24T06:45:57.779Z,20.70
2022-08-24T06:46:39.696Z,20.90
2022-08-24T06:47:22.079Z,20.80
2022-08-24T06:48:04.137Z,20.80
2022-08-24T06:48:46.539Z,20.80
2022-08-24T06:49:28.425Z,20.60
2022-08-24T06:50:10.973Z,20.70
2022-08-24T06:50:53.762Z,20.90
2022-08-24T06:51:35.469Z,20.90
2022-08-24T06:52:17.281Z,20.90
2022-08-24T06:53:00.705Z,21.10
2022-08-24T06:53:43.587Z,21.30
2022-08-24T06:54:25.383Z,20.90
2022-08-24T06:55:07.695Z,20.90
2022-08-24T06:55:55.545Z,21.00
2022-08-24T06:56:38.691Z,21.20
2022-08-24T06:57:20.488Z,20.90
2022-08-24T06:58:03.107Z,20.90
2022-08-24T06:58:45.228Z,21.00
2022-08-24T06:59:28.229Z,20.90
2022-08-24T07:00:10.930Z,20.90
2022-08-24T07:00:52.705Z,21.10
2022-08-24T07:01:35.039Z,21.00
2022-08-24T07:02:18.902Z,21.00
2022-08-24T07:03:02.207Z,21.20
2022-08-24T07:03:44.837Z,21.10
2022-08-24T07:04:28.411Z,21.10
2022-08-24T07:05:10.238Z,21.20
2022-08-24T07:05:54.182Z,21.10
2022-08-24T07:06:36.965Z,21.10
2022-08-24T07:07:18.657Z,21.30
2022-08-24T07:08:00.758Z,21.20
2022-08-24T07:08:43.202Z,21.20
2022-08-24T07:09:25.038Z,21.30
2022-08-24T07:10:11.185Z,21.20
2022-08-24T07:10:52.878Z,21.30
2022-08-24T07:11:35.104Z,21.20
2022-08-24T07:12:16.873Z,21.20
2022-08-24T07:12:58.746Z,21.40
2022-08-24T07:13:41.022Z,21.40
2022-08-24T07:14:23.742Z,21.30
2022-08-24T07:15:16.511Z,21.40
2022-08-24T07:15:59.060Z,21.40
2022-08-24T07:16:40.803Z,21.40
2022-08-24T07:17:22.965Z,21.40
2022-08-24T07:18:09.867Z,21.60
2022-08-24T07:18:51.734Z,21.40
2022-08-24T07:19:33.505Z,21.50
2022-08-24T07:20:17.492Z,21.70
2022-08-24T07:21:03.487Z,21.40
2022-08-24T07:21:45.599Z,21.50
2022-08-24T07:22:27.323Z,21.50
2022-08-24T07:23:09.755Z,21.50
2022-08-24T07:23:56.026Z,21.50
2022-08-24T07:24:37.990Z,21.60
2022-08-24T07:25:19.777Z,21.70
2022-08-24T07:26:10.336Z,21.70
2022-08-24T07:27:00.598Z,21.70
2022-08-24T07:27:42.316Z,21.80
2022-08-24T07:28:27.680Z,21.70
2022-08-24T07:29:43.552Z,21.60
2022-08-24T07:30:27.063Z,21.90
2022-08-24T07:31:09.887Z,21.60
2022-08-24T07:31:51.687Z,21.80
2022-08-24T07:32:33.695Z,21.80
2022-08-24T07:33:15.421Z,21.90
2022-08-24T07:33:57.156Z,21.90
2022-08-24T07:34:38.905Z,21.90
2022-08-24T07:35:20.670Z,22.00
2022-08-24T07:36:02.521Z,21.90
2022-08-24T07:36:44.902Z,22.00
2022-08-24T07:37:40.726Z,21.90
2022-08-24T07:38:23.012Z,21.90
2022-08-24T07:39:05.891Z,22.10
2022-08-24T07:39:47.816Z,21.90
2022-08-24T07:40:30.280Z,21.90
2022-08-24T07:41:38.053Z,22.30
2022-08-24T07:42:20.984Z,22.10
2022-08-24T07:43:07.244Z,22.10
2022-08-24T07:43:49.596Z,22.10
2022-08-24T07:44:31.732Z,22.00
2022-08-24T07:45:13.433Z,22.20
2022-08-24T07:45:55.240Z,22.20
2022-08-24T07:46:38.969Z,22.30
2022-08-24T07:47:37.512Z,22.20
2022-08-24T07:48:21.375Z,22.20
2022-08-24T07:49:12.490Z,22.30
2022-08-24T07:49:54.522Z,22.20
2022-08-24T07:50:37.314Z,22.40
2022-08-24T07:51:20.261Z,22.60
2022-08-24T07:52:02.230Z,22.30
2022-08-24T07:52:45.090Z,22.40
2022-08-24T07:53:32.456Z,22.40
2022-08-24T07:54:25.889Z,22.30
2022-08-24T07:55:08.112Z,22.30
2022-08-24T07:55:55.257Z,22.50
2022-08-24T07:56:37.077Z,22.50
2022-08-24T07:57:18.804Z,22.50
2022-08-24T07:58:01.404Z,22.50
2022-08-24T07:58:43.821Z,22.60
2022-08-24T07:59:25.614Z,22.40
2022-08-24T08:00:10.431Z,22.80
2022-08-24T08:00:52.220Z,22.50
2022-08-24T08:01:34.183Z,22.50
2022-08-24T08:02:17.187Z,22.80
2022-08-24T08:02:59.091Z,22.60
2022-08-24T08:03:40.946Z,22.50
2022-08-24T08:04:25.116Z,22.50
2022-08-24T08:05:07.259Z,22.60
2022-08-24T08:05:49.553Z,22.60
2022-08-24T08:06:31.325Z,22.70
2022-08-24T08:07:14.682Z,22.80
2022-08-24T08:07:56.622Z,22.70
2022-08-24T08:08:41.037Z,22.60
2022-08-24T08:09:22.825Z,22.70
2022-08-24T08:10:05.125Z,22.90
2022-08-24T08:10:46.819Z,22.90
2022-08-24T08:11:28.594Z,23.00
2022-08-24T08:12:10.352Z,22.80
2022-08-24T08:12:52.211Z,22.80
2022-08-24T08:13:34.986Z,22.80
2022-08-24T08:14:16.700Z,23.00
2022-08-24T08:14:58.507Z,23.00
2022-08-24T08:15:40.331Z,22.90
2022-08-24T08:16:23.349Z,23.00
2022-08-24T08:17:05.234Z,23.10
2022-08-24T08:17:47.000Z,22.90
2022-08-24T08:18:37.887Z,23.00
2022-08-24T08:19:19.693Z,22.90
2022-08-24T08:20:01.572Z,23.00
2022-08-24T08:20:43.307Z,23.20
2022-08-24T08:21:43.843Z,23.10
2022-08-24T08:22:44.099Z,23.00
2022-08-24T08:23:44.635Z,23.10
2022-08-24T08:24:30.083Z,23.30
2022-08-24T08:25:13.038Z,23.30
2022-08-24T08:25:57.955Z,23.20
2022-08-24T08:26:40.367Z,23.20
2022-08-24T08:27:22.662Z,23.60
2022-08-24T08:28:18.530Z,23.50
2022-08-24T08:29:10.442Z,23.50
2022-08-24T08:29:52.778Z,23.50
2022-08-24T08:30:34.485Z,23.40
2022-08-24T08:31:16.290Z,23.40
2022-08-24T08:31:58.452Z,23.40
2022-08-24T08:32:40.341Z,23.50
2022-08-24T08:33:22.143Z,23.40
2022-08-24T08:34:05.233Z,23.60
2022-08-24T08:34:47.599Z,23.60
2022-08-24T08:35:29.642Z,23.60
2022-08-24T08:36:17.160Z,23.50
2022-08-24T08:37:00.319Z,23.70
2022-08-24T08:37:42.325Z,23.60
2022-08-24T08:38:24.288Z,23.70
2022-08-24T08:39:12.127Z,23.70
2022-08-24T08:39:54.673Z,23.50
2022-08-24T08:40:45.470Z,23.90
2022-08-24T08:41:36.013Z,23.60
2022-08-24T08:42:38.460Z,24.10
2022-08-24T08:43:44.496Z,23.90
2022-08-24T08:44:38.126Z,23.80
2022-08-24T08:45:43.367Z,23.90
2022-08-24T08:46:25.219Z,24.10
2022-08-24T08:47:44.584Z,24.00
2022-08-24T08:48:35.157Z,23.90
2022-08-24T08:49:45.950Z,23.90
2022-08-24T08:50:57.734Z,24.00
2022-08-24T08:52:27.058Z,24.00
2022-08-24T08:53:45.336Z,24.00
2022-08-24T08:54:30.837Z,24.30
2022-08-24T08:55:31.112Z,24.30
2022-08-24T08:56:58.583Z,24.50
2022-08-24T08:58:03.354Z,24.20
2022-08-24T08:59:12.729Z,24.30
2022-08-24T09:00:17.584Z,24.30
2022-08-24T09:01:10.978Z,24.40
2022-08-24T09:02:32.116Z,24.50
2022-08-24T09:03:51.654Z,24.50
2022-08-24T09:04:52.292Z,24.70
2022-08-24T09:05:58.885Z,24.80
2022-08-24T09:07:05.513Z,24.60
2022-08-24T09:08:10.555Z,24.90
2022-08-24T09:09:31.866Z,24.70
2022-08-24T09:10:16.602Z,24.70
2022-08-24T09:11:19.768Z,24.90
2022-08-24T09:12:13.371Z,22.80
2022-08-24T09:13:25.056Z,25.00
2022-08-24T09:14:12.962Z,25.10
2022-08-24T09:15:32.142Z,24.90
2022-08-24T09:16:35.838Z,25.00
2022-08-24T09:17:26.140Z,25.00
2022-08-24T09:18:42.669Z,25.20
2022-08-24T09:19:57.886Z,25.00
2022-08-24T09:20:54.219Z,25.10
2022-08-24T09:21:45.442Z,25.10
2022-08-24T09:22:27.335Z,25.20
2022-08-24T09:23:33.581Z,25.50
2022-08-24T09:24:44.062Z,25.30
2022-08-24T09:25:36.995Z,25.20
2022-08-24T09:26:29.283Z,25.40
2022-08-24T09:27:37.697Z,25.60
2022-08-24T09:28:48.247Z,25.50
2022-08-24T09:29:50.643Z,25.60
2022-08-24T09:30:57.566Z,25.80
2022-08-24T09:31:42.110Z,25.70
2022-08-24T09:32:45.486Z,25.90
2022-08-24T09:33:45.632Z,25.70
2022-08-24T09:34:48.014Z,25.60
2022-08-24T09:36:09.943Z,25.60
2022-08-24T09:37:10.125Z,25.70
2022-08-24T09:38:00.768Z,25.80
2022-08-24T09:38:42.432Z,25.60
2022-08-24T09:39:54.460Z,25.80
2022-08-24T09:40:56.590Z,25.80
2022-08-24T09:42:19.155Z,25.90
2022-08-24T09:43:29.955Z,25.90
2022-08-24T09:44:45.325Z,25.80
2022-08-24T09:46:00.700Z,25.90
2022-08-24T09:47:02.139Z,26.00